福岡空港の過去48時間の天気

福岡空港 (Fukuoka)

現在時刻: 9/24 13:44 JST (9/24 04:44 UTC) 以下の時間は現地時間です。

過去48時間のMETAR気象情報
時間 風向 風速(m/s) 視程 気温(℃) 湿度(%) 気圧(hPa) 天気現象
24 13:00 北北東 3 10km以上 24 57 1016
24 12:30 北東 4 10km以上 24 54 1016
24 12:00 東北東 3 10km以上 24 57 1016
24 11:30 北北東 4 10km以上 24 57 1016
24 11:00 4 10km以上 25 57 1017
24 10:30 4 10km以上 24 57 1017
24 10:00 北北東 4 10km以上 25 57 1017
24 09:30 北東 4 10km以上 25 61 1017
24 09:00 北北東 3 10km以上 24 65 1017
24 08:30 北北東 3 10km以上 24 69 1016
24 08:00 3 10km以上 24 74 1016
24 07:30 不定 1 10km以上 22 78 1016
24 07:00 北北西 2 10km以上 22 78 1016
24 06:30 静穏 0 10km以上 22 73 1016
24 06:00 南南東 1 10km以上 22 78 1015
24 05:30 静穏 0 10km以上 22 73 1015
24 05:00 南南東 2 10km以上 21 73 1015
24 04:30 東南東 2 10km以上 22 69 1015
24 04:00 南東 1 10km以上 22 73 1015
24 03:30 静穏 0 10km以上 22 69 1015
24 03:00 東南東 2 10km以上 22 69 1015
24 02:30 不定 1 10km以上 22 65 1015
24 02:00 不定 1 10km以上 22 73 1015
24 01:30 東南東 1 10km以上 22 73 1015
24 01:00 不定 1 10km以上 23 65 1015
24 00:30 東南東 2 10km以上 23 69 1015
24 00:00 南南東 1 10km以上 23 69 1015
23 23:30 南東 2 10km以上 23 65 1015
23 23:00 南南東 2 10km以上 23 69 1015
23 22:30 不定 1 10km以上 23 69 1015
23 22:00 不定 1 10km以上 24 69 1015
23 21:30 南南東 2 10km以上 24 65 1015
23 21:00 南東 3 10km以上 24 65 1015
23 20:30 南南西 2 10km以上 24 65 1015
23 20:00 東南東 2 10km以上 25 65 1015
23 19:30 東北東 2 10km以上 25 69 1014
23 19:00 2 10km以上 25 69 1014
23 18:30 北東 2 10km以上 26 65 1014
23 18:00 不定 1 10km以上 27 62 1014
23 17:30 北西 2 10km以上 27 54 1014
23 17:00 2 10km以上 28 51 1014
23 16:30 北西 2 10km以上 28 55 1014
23 16:00 北西 2 10km以上 28 55 1014
23 15:30 北西 3 10km以上 28 51 1014
23 15:00 北北西 3 10km以上 28 48 1014
23 14:30 不定 1 10km以上 28 48 1014
23 14:00 不定 1 10km以上 28 48 1014
23 13:30 不定 1 10km以上 27 54 1015
23 13:00 南南東 2 10km以上 26 58 1015
23 12:30 不定 2 10km以上 27 58 1015
23 12:00 南南東 3 10km以上 27 54 1015
23 11:30 南東 2 10km以上 26 58 1016
23 11:00 不定 2 10km以上 26 61 1016
23 10:30 南東 2 10km以上 25 65 1016
23 10:00 南南東 2 10km以上 24 74 1016
23 09:30 2 10km以上 24 74 1017
23 09:00 2 10km以上 23 78 1017
23 08:30 南東 2 10km以上 22 78 1017
23 08:00 南南東 2 10km以上 22 78 1017
23 07:30 静穏 0 10km以上 22 78 1016
23 07:00 南東 1 10km以上 21 83 1016
23 06:30 南東 1 10km以上 20 88 1016
23 06:00 南東 2 10km以上 21 78 1016
23 05:30 南東 2 10km以上 21 83 1016
23 05:00 不定 1 10km以上 21 83 1015
23 03:30 2 10km以上 21 78 1016
RJFF 240400Z 03005KT 350V090 9999 FEW030 BKN035 BKN/// 24/15 Q1016 NOSIG
RJFF 240330Z 04007KT 350V090 9999 FEW030 BKN035 OVC/// 24/14 Q1016 NOSIG RMK 1CU030 6CU035 A3002
RJFF 240300Z 06006KT 360V100 9999 FEW030 SCT035 OVC/// 24/15 Q1016 BECMG 02009KT RMK 1CU030 4CU035 A3003
RJFF 240230Z 02008KT 9999 FEW030 BKN035 OVC/// 24/15 Q1016 NOSIG RMK 1CU030 6CU035 A3003
RJFF 240200Z 01008KT 9999 FEW035 OVC/// 25/16 Q1017 NOSIG RMK 1CU035 A3003
RJFF 240130Z 01008KT 340V040 9999 FEW030 SCT050 OVC/// 24/15 Q1017 NOSIG
RJFF 240100Z 03007KT 320V090 9999 FEW030 BKN/// 25/16 Q1017 NOSIG RMK 1CU030 A3004
RJFF 240030Z 04007KT 350V110 9999 FEW025 SCT050 BKN/// 25/17 Q1017 NOSIG
RJFF 240000Z 03006KT 340V130 9999 FEW025 SCT035 BKN050 24/17 Q1017 NOSIG RMK 1CU025 3CU035 5SC050 A3003
RJFF 232330Z 02006KT 330V120 9999 FEW025 SCT050 BKN/// 24/18 Q1016 NOSIG
RJFF 232300Z 35006KT 320V030 9999 FEW025 SCT040 BKN050 24/19 Q1016 NOSIG RMK 1CU025 3CU040 5SC050 A3000
RJFF 232230Z VRB01KT 9999 FEW025 BKN035 BKN/// 22/18 Q1016 BECMG 01006KT
RJFF 232200Z 34003KT 9999 FEW025 SCT030 BKN/// 22/18 Q1016 NOSIG RMK 1CU025 4CU030 A3001
RJFF 232130Z 00000KT 9999 FEW025 SCT030 BKN/// 22/17 Q1016 BECMG 15006KT
RJFF 232100Z 15001KT 9999 FEW020 SCT170 BKN/// 22/18 Q1015 NOSIG RMK 1CU020 3AC170 A2999
RJFF 232030Z AUTO 00000KT 9999 NSC 22/17 Q1015 BECMG 15006KT RMK A2999
RJFF 232000Z AUTO 15003KT 120V190 9999 NSC 21/16 Q1015 NOSIG RMK A2999
RJFF 231930Z AUTO 12003KT 9999 NSC 22/16 Q1015 NOSIG RMK A2998
RJFF 231900Z AUTO 13002KT 9999 FEW029 SCT170 BKN180 22/17 Q1015 NOSIG RMK A2998
RJFF 231830Z AUTO 00000KT 9999 NSC 22/16 Q1015 BECMG 15006KT
RJFF 231800Z AUTO 12003KT 090V160 9999 NSC 22/16 Q1015 NOSIG RMK A2999
RJFF 231730Z AUTO VRB02KT 9999 NSC 22/15 Q1015 NOSIG RMK A2999
RJFF 231700Z AUTO VRB02KT 9999 NSC 22/17 Q1015 NOSIG RMK A2999
RJFF 231630Z AUTO 12001KT 9999 NSC 22/17 Q1015 NOSIG RMK A2998
RJFF 231600Z AUTO VRB01KT 9999 NSC 23/16 Q1015 NOSIG RMK A2999
RJFF 231530Z AUTO 11003KT 9999 NSC 23/17 Q1015 NOSIG RMK A2998
RJFF 231500Z AUTO 15002KT 9999 NSC 23/17 Q1015 NOSIG RMK A2999
RJFF 231430Z AUTO 14003KT 9999 NSC 23/16 Q1015 NOSIG RMK A2999
RJFF 231400Z AUTO 15003KT 9999 NSC 23/17 Q1015 NOSIG RMK A2999
RJFF 231330Z VRB01KT CAVOK 23/17 Q1015 NOSIG RMK A2998
RJFF 231300Z VRB01KT 9999 FEW025 SCT170 BKN/// 24/18 Q1015 NOSIG RMK 1CU025 3AC170 A2999
RJFF 231230Z 16003KT 100V190 9999 FEW025 SCT170 BKN/// 24/17 Q1015 NOSIG
RJFF 231200Z 14006KT 9999 FEW025 BKN170 BKN/// 24/17 Q1015 NOSIG RMK 1CU025 5AC170 A2997
RJFF 231130Z 20003KT CAVOK 24/17 Q1015 NOSIG RMK A2998
RJFF 231100Z 11003KT 060V170 CAVOK 25/18 Q1015 NOSIG RMK A2998
RJFF 231030Z 07004KT 010V130 CAVOK 25/19 Q1014 NOSIG RMK A2997
RJFF 231000Z 01004KT 330V090 CAVOK 25/19 Q1014 NOSIG RMK A2997
RJFF 230930Z 05004KT 300V110 CAVOK 26/19 Q1014 NOSIG RMK A2996
RJFF 230900Z VRB02KT CAVOK 27/19 Q1014 NOSIG RMK A2996
RJFF 230830Z 32004KT CAVOK 27/17 Q1014 NOSIG RMK A2996
RJFF 230800Z 35004KT CAVOK 28/17 Q1014 NOSIG RMK A2995
RJFF 230730Z 32004KT CAVOK 28/18 Q1014 NOSIG RMK A2995
RJFF 230700Z 32004KT 260V010 CAVOK 28/18 Q1014 NOSIG RMK A2996
RJFF 230630Z 32005KT 290V350 CAVOK 28/17 Q1014 BECMG FM0800 14004KT
RJFF 230600Z 33005KT 280V020 CAVOK 28/16 Q1014 NOSIG RMK A2996
RJFF 230530Z VRB01KT CAVOK 28/16 Q1014 NOSIG RMK A2996
RJFF 230500Z VRB01KT CAVOK 28/16 Q1014 NOSIG
RJFF 230430Z VRB01KT CAVOK 27/17 Q1015 NOSIG RMK A2998
RJFF 230400Z 16003KT 120V200 CAVOK 26/17 Q1015 NOSIG RMK A2998
RJFF 230330Z VRB03KT CAVOK 27/18 Q1015 NOSIG
RJFF 230300Z 15005KT 110V190 CAVOK 27/17 Q1015 NOSIG
RJFF 230230Z 14004KT 100V200 CAVOK 26/17 Q1016 NOSIG RMK A3000
RJFF 230200Z VRB03KT 9999 FEW030 SCT180 BKN/// 26/18 Q1016 NOSIG
RJFF 230130Z 14004KT 090V170 9999 FEW030 SCT180 BKN/// 25/18 Q1016 NOSIG
RJFF 230100Z 15003KT 080V190 9999 FEW030 SCT180 BKN/// 24/19 Q1016 NOSIG RMK 1CU030 3AC180 A3002
RJFF 230030Z 17003KT 100V210 9999 FEW030 BKN/// 24/19 Q1017 NOSIG
RJFF 230000Z 17003KT 120V220 9999 FEW030 BKN/// 23/19 Q1017 NOSIG
RJFF 222330Z 13003KT 090V150 9999 FEW040 SCT170 BKN/// 22/18 Q1017 NOSIG
RJFF 222300Z 15003KT 9999 FEW040 SCT150 BKN170 22/18 Q1017 NOSIG RMK 1CU040 3AC150 6AC170 A3003
RJFF 222230Z 00000KT 9999 FEW035 SCT150 BKN170 22/18 Q1016 NOSIG RMK 1CU035 3AC150 6AC170 A3003
RJFF 222200Z 13002KT 9999 FEW025 SCT150 BKN170 21/18 Q1016 NOSIG RMK 1CU025 3AC150 6AC170 A3002
RJFF 222130Z 14002KT 9999 FEW015 SCT150 BKN170 20/18 Q1016 NOSIG RMK 1CU015 3AC150 6AC170 A3002
RJFF 222100Z 13003KT 9999 FEW015 SCT170 BKN/// 21/17 Q1016 NOSIG
RJFF 222030Z AUTO 13003KT 9999 NSC 21/18 Q1016 NOSIG
RJFF 222000Z AUTO VRB02KT 9999 NSC 21/18 Q1015 NOSIG RMK A3000
RJFF 221830Z AUTO 10003KT 9999 NSC 21/17 Q1016 NOSIG RMK A3000